Time;durP1;ratioP1;P1;durP2;ratioP2;P2;SDS_P1;SDS_P2;PMS_P1;PMS_P2;Temp;Humidity;BMP_temperature;BMP_pressure;BME280_temperature;BME280_humidity;BME280_pressure;Samples;Min_cycle;Max_cycle;Signal;HPM_P1;HPM_P2
2023/06/19 00:01:14;;;;;;;7.85;4.20;;;18.60;95.20;;;;;;4841808;29;20062;-80
2023/06/19 00:03:41;;;;;;;6.60;4.00;;;18.60;94.80;;;;;;4857854;29;20048;-80
2023/06/19 00:06:08;;;;;;;8.52;4.43;;;18.60;95.10;;;;;;4862741;29;20689;-80
2023/06/19 00:08:36;;;;;;;7.78;5.20;;;18.50;95.20;;;;;;4848549;29;20060;-80
2023/06/19 00:11:04;;;;;;;9.68;5.20;;;18.50;95.60;;;;;;4855593;29;20051;-80
2023/06/19 00:13:31;;;;;;;11.05;4.70;;;18.50;95.80;;;;;;4859742;29;20519;-80
2023/06/19 00:16:00;;;;;;;8.82;4.90;;;18.40;95.60;;;;;;4862274;29;20048;-80
2023/06/19 00:18:28;;;;;;;12.43;5.60;;;18.50;95.70;;;;;;4869576;29;20044;-80
2023/06/19 00:20:56;;;;;;;8.60;4.55;;;18.50;96.40;;;;;;4865327;29;20050;-80
2023/06/19 00:23:23;;;;;;;8.50;4.93;;;18.50;96.20;;;;;;4852924;29;20056;-80
2023/06/19 00:25:50;;;;;;;8.65;4.70;;;18.50;95.90;;;;;;4852799;29;20048;-80
2023/06/19 00:28:19;;;;;;;11.05;4.93;;;18.50;96.10;;;;;;4864163;29;22450;-80
2023/06/19 00:30:47;;;;;;;7.72;4.40;;;18.50;96.20;;;;;;4862962;29;20095;-80
2023/06/19 00:33:14;;;;;;;8.98;4.68;;;18.50;96.60;;;;;;4861546;29;20642;-80
2023/06/19 00:35:41;;;;;;;6.40;4.30;;;18.40;96.70;;;;;;4863252;29;20179;-80
2023/06/19 00:38:10;;;;;;;6.18;4.30;;;18.30;97.00;;;;;;4863372;29;20142;-81
2023/06/19 00:40:37;;;;;;;8.05;4.82;;;18.40;97.30;;;;;;4855330;29;20060;-81
2023/06/19 00:43:04;;;;;;;9.68;4.90;;;18.40;96.70;;;;;;4855860;29;20044;-81
2023/06/19 00:45:31;;;;;;;7.82;4.50;;;18.30;96.50;;;;;;4862954;29;20072;-81
2023/06/19 00:48:00;;;;;;;22.85;5.43;;;18.40;96.80;;;;;;4867547;29;20040;-81
2023/06/19 00:50:32;;;;;;;8.48;4.50;;;18.40;96.60;;;;;;4858709;29;20116;-81
2023/06/19 00:53:02;;;;;;;7.10;4.25;;;18.30;96.30;;;;;;4847884;29;20046;-81
2023/06/19 00:55:30;;;;;;;8.73;4.53;;;18.30;96.40;;;;;;4865713;29;20055;-81
2023/06/19 00:58:00;;;;;;;8.90;4.93;;;18.30;96.90;;;;;;4865070;29;20185;-81
2023/06/19 01:00:27;;;;;;;8.20;4.50;;;18.20;97.10;;;;;;4853218;29;20060;-80
2023/06/19 01:02:57;;;;;;;7.95;4.32;;;18.30;97.40;;;;;;4871954;29;20051;-80
2023/06/19 01:05:24;;;;;;;11.07;5.03;;;18.20;97.30;;;;;;4865476;29;20209;-81
2023/06/19 01:07:59;;;;;;;9.80;4.72;;;18.20;97.60;;;;;;4860522;29;20626;-81
2023/06/19 01:10:36;;;;;;;6.72;4.35;;;18.20;97.80;;;;;;4857460;29;20258;-81
2023/06/19 01:13:11;;;;;;;9.20;4.80;;;18.10;98.20;;;;;;4852666;29;20063;-81
2023/06/19 01:15:40;;;;;;;9.27;4.82;;;18.10;97.90;;;;;;4863115;29;20947;-81
2023/06/19 01:18:11;;;;;;;8.73;5.78;;;18.10;98.00;;;;;;4859565;29;22560;-80
2023/06/19 01:20:39;;;;;;;8.20;4.53;;;18.00;98.20;;;;;;4852575;29;20059;-80
2023/06/19 01:23:08;;;;;;;9.38;4.57;;;18.00;97.80;;;;;;4839928;29;20075;-80
2023/06/19 01:25:36;;;;;;;8.23;5.07;;;18.00;97.50;;;;;;4843701;29;20071;-80
2023/06/19 01:28:09;;;;;;;8.50;4.75;;;18.00;97.80;;;;;;4864898;29;20122;-80
2023/06/19 01:30:39;;;;;;;10.55;4.93;;;17.90;97.80;;;;;;4877788;29;20056;-80
2023/06/19 01:33:18;;;;;;;11.60;5.35;;;18.00;97.90;;;;;;4865802;29;20128;-80
2023/06/19 01:35:47;;;;;;;11.88;5.50;;;17.70;97.60;;;;;;4868220;29;20055;-80
2023/06/19 01:38:16;;;;;;;8.95;5.00;;;17.40;98.90;;;;;;4844678;29;22386;-80
2023/06/19 01:40:43;;;;;;;11.55;4.85;;;17.70;98.80;;;;;;4857140;29;20063;-80
2023/06/19 01:43:11;;;;;;;7.90;5.00;;;17.80;98.70;;;;;;4848872;29;20056;-80
2023/06/19 01:45:38;;;;;;;11.63;5.07;;;17.80;98.80;;;;;;4868776;29;20812;-80
2023/06/19 01:48:05;;;;;;;9.30;5.38;;;17.80;98.70;;;;;;4854185;29;20048;-80
2023/06/19 01:50:32;;;;;;;10.93;5.97;;;17.70;99.00;;;;;;4870786;29;20392;-80
2023/06/19 01:52:59;;;;;;;9.15;5.57;;;17.70;99.10;;;;;;4868138;29;20559;-80
2023/06/19 01:55:26;;;;;;;9.80;5.85;;;17.70;98.60;;;;;;4842912;29;20057;-80
2023/06/19 01:57:54;;;;;;;11.93;5.93;;;17.70;98.70;;;;;;4853119;29;20087;-80
2023/06/19 02:00:21;;;;;;;12.80;5.72;;;17.70;98.60;;;;;;4845203;29;20507;-81
2023/06/19 02:02:48;;;;;;;8.45;5.20;;;17.70;98.10;;;;;;4857709;29;20044;-81
2023/06/19 02:05:17;;;;;;;10.05;5.65;;;17.70;98.00;;;;;;4859395;29;20713;-80
2023/06/19 02:07:44;;;;;;;10.27;5.47;;;17.70;98.20;;;;;;4836157;29;20063;-80
2023/06/19 02:10:11;;;;;;;8.75;5.88;;;17.70;98.70;;;;;;4864104;29;20168;-80
2023/06/19 02:12:38;;;;;;;8.25;5.28;;;17.70;98.30;;;;;;4866323;29;20131;-80
2023/06/19 02:15:06;;;;;;;16.50;6.97;;;17.70;98.70;;;;;;4854506;29;20484;-80
2023/06/19 02:17:33;;;;;;;11.35;6.20;;;17.70;98.50;;;;;;4838441;29;20395;-80
2023/06/19 02:20:05;;;;;;;8.95;5.72;;;17.70;98.40;;;;;;4856972;29;20104;-80
2023/06/19 02:22:32;;;;;;;8.10;5.20;;;17.80;98.80;;;;;;4870898;29;20071;-80
2023/06/19 02:25:00;;;;;;;12.85;6.63;;;17.80;98.90;;;;;;4857821;29;20088;-80
2023/06/19 02:27:27;;;;;;;7.45;4.90;;;17.70;98.60;;;;;;4859691;29;22692;-80
2023/06/19 02:29:54;;;;;;;12.15;5.88;;;17.80;98.60;;;;;;4864081;29;20064;-80
2023/06/19 02:32:21;;;;;;;9.65;6.80;;;17.70;98.70;;;;;;4840681;29;20052;-80
2023/06/19 02:34:48;;;;;;;8.20;5.30;;;17.70;98.80;;;;;;4857063;29;22105;-80
2023/06/19 02:37:15;;;;;;;9.80;5.80;;;17.60;98.50;;;;;;4859838;29;20183;-80
2023/06/19 02:39:42;;;;;;;11.13;6.25;;;17.70;98.60;;;;;;4850892;29;20057;-80
2023/06/19 02:42:10;;;;;;;11.13;6.80;;;17.60;99.00;;;;;;4850656;29;22448;-80
2023/06/19 02:44:37;;;;;;;10.48;6.05;;;17.60;99.20;;;;;;4874121;29;20056;-80
2023/06/19 02:47:05;;;;;;;8.65;5.82;;;17.50;99.20;;;;;;4854899;29;20040;-80
2023/06/19 02:49:32;;;;;;;9.45;5.22;;;17.60;99.20;;;;;;4891362;29;20063;-80
2023/06/19 02:51:59;;;;;;;9.50;5.88;;;17.60;99.30;;;;;;4855587;29;20062;-80
2023/06/19 02:54:26;;;;;;;10.63;6.20;;;17.50;99.40;;;;;;4851836;29;20064;-80
2023/06/19 02:56:53;;;;;;;10.63;5.68;;;17.60;99.40;;;;;;4860557;29;20053;-80
2023/06/19 02:59:20;;;;;;;10.55;5.55;;;17.50;99.40;;;;;;4854359;29;20524;-80
2023/06/19 03:01:50;;;;;;;10.77;5.40;;;17.50;99.10;;;;;;4866935;29;20051;-80
2023/06/19 03:04:17;;;;;;;7.63;5.15;;;17.60;99.20;;;;;;4830791;29;20060;-80
2023/06/19 03:06:44;;;;;;;8.65;4.90;;;17.60;99.40;;;;;;4868942;29;20812;-80
2023/06/19 03:09:15;;;;;;;8.23;5.05;;;17.60;99.80;;;;;;4866636;29;20500;-80
2023/06/19 03:11:42;;;;;;;9.45;6.00;;;17.60;99.90;;;;;;4854436;29;20060;-80
2023/06/19 03:14:10;;;;;;;8.57;5.25;;;17.50;99.30;;;;;;4850848;29;20052;-80
2023/06/19 03:16:37;;;;;;;10.07;5.65;;;17.50;99.50;;;;;;4867183;29;20056;-80
2023/06/19 03:19:05;;;;;;;8.75;5.03;;;17.60;99.30;;;;;;4856225;29;20055;-80
2023/06/19 03:21:35;;;;;;;10.18;5.30;;;17.50;99.40;;;;;;4853737;29;20412;-80
2023/06/19 03:24:03;;;;;;;9.52;5.45;;;17.50;99.10;;;;;;4842350;29;20187;-80
2023/06/19 03:26:31;;;;;;;11.77;6.00;;;17.50;99.70;;;;;;4851300;29;20045;-80
2023/06/19 03:29:01;;;;;;;10.70;6.18;;;17.50;99.90;;;;;;4871728;29;20134;-80
2023/06/19 03:31:39;;;;;;;8.60;5.70;;;17.50;99.80;;;;;;4865734;29;20147;-80
2023/06/19 03:34:07;;;;;;;9.98;5.80;;;17.60;99.90;;;;;;4861012;29;20060;-80
2023/06/19 03:36:36;;;;;;;12.75;6.00;;;17.60;99.90;;;;;;4862061;29;20176;-80
2023/06/19 03:39:07;;;;;;;12.77;6.25;;;17.60;99.90;;;;;;4849619;29;20045;-80
2023/06/19 03:41:36;;;;;;;10.00;5.32;;;17.60;99.90;;;;;;4841050;29;20080;-81
2023/06/19 03:44:03;;;;;;;9.23;5.53;;;17.70;99.90;;;;;;4857072;29;20036;-81
2023/06/19 03:46:30;;;;;;;8.75;4.97;;;17.70;99.70;;;;;;4864954;29;20047;-81
2023/06/19 03:48:58;;;;;;;9.90;5.88;;;17.80;99.50;;;;;;4865062;29;20051;-81
2023/06/19 03:51:28;;;;;;;11.93;6.50;;;17.80;99.20;;;;;;4848738;29;20057;-81
2023/06/19 03:53:56;;;;;;;12.38;5.80;;;17.80;99.20;;;;;;4849291;29;20048;-80
2023/06/19 03:56:23;;;;;;;8.15;5.85;;;17.80;98.70;;;;;;4842228;29;20044;-80
2023/06/19 03:58:51;;;;;;;11.52;5.38;;;17.80;98.70;;;;;;4840246;29;20401;-80
2023/06/19 04:01:18;;;;;;;10.30;5.57;;;17.80;98.90;;;;;;4855979;29;22169;-80
2023/06/19 04:03:47;;;;;;;9.80;5.47;;;17.80;99.10;;;;;;4864297;29;20570;-80
2023/06/19 04:06:15;;;;;;;8.13;5.00;;;17.80;99.60;;;;;;4857039;29;20051;-80
2023/06/19 04:08:43;;;;;;;8.85;5.03;;;17.80;99.10;;;;;;4864993;29;20138;-80
2023/06/19 04:11:12;;;;;;;9.70;5.03;;;17.80;99.20;;;;;;4851084;29;20048;-80
2023/06/19 04:13:39;;;;;;;8.93;5.03;;;17.80;99.10;;;;;;4852436;29;22080;-80
2023/06/19 04:16:06;;;;;;;8.45;5.22;;;18.00;99.20;;;;;;4862581;29;20045;-80
2023/06/19 04:18:34;;;;;;;7.35;4.45;;;18.00;98.60;;;;;;4865949;29;20076;-80
2023/06/19 04:21:03;;;;;;;6.80;4.43;;;18.10;98.60;;;;;;4840230;29;20500;-80
2023/06/19 04:23:31;;;;;;;7.22;4.93;;;18.10;97.50;;;;;;4842980;29;20493;-80
2023/06/19 04:25:58;;;;;;;9.00;5.18;;;18.10;97.80;;;;;;4868029;29;20056;-80
2023/06/19 04:28:26;;;;;;;9.48;5.25;;;18.20;97.40;;;;;;4858437;29;20049;-80
2023/06/19 04:31:00;;;;;;;9.65;5.55;;;18.10;97.30;;;;;;4838811;29;20052;-80
2023/06/19 04:33:28;;;;;;;8.70;5.13;;;18.20;97.90;;;;;;4850938;29;20068;-80
2023/06/19 04:35:56;;;;;;;7.97;4.97;;;18.20;97.50;;;;;;4862997;29;20963;-80
2023/06/19 04:38:24;;;;;;;7.95;4.75;;;18.20;97.40;;;;;;4853880;29;20071;-80
2023/06/19 04:40:52;;;;;;;7.80;4.65;;;18.40;97.70;;;;;;4832477;29;20060;-80
2023/06/19 04:43:19;;;;;;;10.07;5.10;;;18.60;97.80;;;;;;4842735;29;20052;-80
2023/06/19 04:45:46;;;;;;;7.38;5.03;;;18.70;97.50;;;;;;4853937;29;20520;-80
2023/06/19 04:48:13;;;;;;;7.05;4.47;;;18.90;97.20;;;;;;4864972;29;20056;-79
2023/06/19 04:50:40;;;;;;;9.10;4.03;;;19.00;96.60;;;;;;4872597;29;20127;-80
2023/06/19 04:53:08;;;;;;;10.57;5.03;;;19.10;96.40;;;;;;4868689;29;20044;-80
2023/06/19 04:55:35;;;;;;;9.43;4.97;;;19.10;96.00;;;;;;4862490;29;20131;-80
2023/06/19 04:58:02;;;;;;;9.00;4.82;;;19.10;96.00;;;;;;4864582;29;20074;-80
2023/06/19 05:00:29;;;;;;;9.68;5.28;;;19.10;96.30;;;;;;4849042;29;20058;-80
2023/06/19 05:02:59;;;;;;;8.40;5.75;;;19.00;97.10;;;;;;4865972;29;20051;-80
2023/06/19 05:05:28;;;;;;;8.00;5.20;;;18.90;97.60;;;;;;4868419;29;21438;-80
2023/06/19 05:07:55;;;;;;;8.68;5.57;;;19.00;97.40;;;;;;4849749;29;20045;-80
2023/06/19 05:10:22;;;;;;;9.15;5.70;;;19.30;97.50;;;;;;4849761;29;20077;-80
2023/06/19 05:12:50;;;;;;;7.05;5.15;;;19.10;97.40;;;;;;4837351;29;20545;-80
2023/06/19 05:15:17;;;;;;;10.98;5.80;;;19.10;97.70;;;;;;4833003;29;20115;-80
2023/06/19 05:17:46;;;;;;;10.25;5.57;;;19.40;97.90;;;;;;4836388;29;20139;-80
2023/06/19 05:20:13;;;;;;;8.88;5.63;;;19.40;97.30;;;;;;4835487;29;20060;-80
2023/06/19 05:22:41;;;;;;;6.07;4.28;;;19.40;97.50;;;;;;4855012;29;20060;-80
2023/06/19 05:25:08;;;;;;;8.63;5.90;;;19.50;97.70;;;;;;4857803;29;20041;-80
2023/06/19 05:27:35;;;;;;;9.43;5.88;;;19.60;98.00;;;;;;4838210;29;20059;-80
2023/06/19 05:30:04;;;;;;;10.02;6.40;;;19.80;97.60;;;;;;4854287;29;20049;-81
2023/06/19 05:32:31;;;;;;;9.13;5.78;;;20.10;97.50;;;;;;4871655;29;20093;-81
2023/06/19 05:34:58;;;;;;;11.82;7.45;;;20.30;97.30;;;;;;4857052;29;22720;-81
2023/06/19 05:37:27;;;;;;;10.27;5.78;;;20.50;96.60;;;;;;4857563;29;20045;-81
2023/06/19 05:39:54;;;;;;;13.18;7.22;;;20.60;96.00;;;;;;4849889;29;20080;-81
2023/06/19 05:42:21;;;;;;;10.82;7.47;;;20.80;95.80;;;;;;4825754;29;20053;-81
2023/06/19 05:44:49;;;;;;;11.38;7.05;;;20.80;95.00;;;;;;4852396;29;20089;-81
2023/06/19 05:47:21;;;;;;;11.57;7.88;;;20.90;95.60;;;;;;4845146;29;20056;-81
2023/06/19 05:49:48;;;;;;;11.30;6.68;;;21.00;94.80;;;;;;4853046;29;20048;-81
2023/06/19 05:52:15;;;;;;;9.20;6.32;;;21.20;94.40;;;;;;4834087;29;20275;-81
2023/06/19 05:54:42;;;;;;;10.32;7.32;;;21.20;94.20;;;;;;4843389;29;20061;-81
2023/06/19 05:57:11;;;;;;;10.15;6.95;;;21.40;94.10;;;;;;4878533;29;20055;-81
2023/06/19 05:59:38;;;;;;;11.38;8.00;;;21.50;94.10;;;;;;4853908;29;20068;-80
2023/06/19 06:02:06;;;;;;;11.57;7.32;;;21.60;93.40;;;;;;4865748;29;20441;-80
2023/06/19 06:04:35;;;;;;;10.25;6.65;;;21.70;93.40;;;;;;4836238;29;20053;-79
2023/06/19 06:07:02;;;;;;;9.15;6.60;;;21.80;93.10;;;;;;4840883;29;20409;-80
2023/06/19 06:09:29;;;;;;;12.48;7.20;;;21.90;93.00;;;;;;4844017;29;20618;-81
2023/06/19 06:11:56;;;;;;;10.02;6.93;;;22.10;93.00;;;;;;4844879;29;20052;-81
2023/06/19 06:14:23;;;;;;;11.10;7.32;;;22.20;92.60;;;;;;4844946;29;20586;-81
2023/06/19 06:16:51;;;;;;;10.63;7.20;;;22.30;92.60;;;;;;4866244;29;20051;-81
2023/06/19 06:19:21;;;;;;;10.85;7.05;;;22.50;92.70;;;;;;4854404;29;20260;-80
2023/06/19 06:21:50;;;;;;;11.05;6.55;;;22.40;91.90;;;;;;4879695;29;20217;-81
2023/06/19 06:24:17;;;;;;;10.45;6.50;;;22.60;92.80;;;;;;4874496;29;20505;-80
2023/06/19 06:26:45;;;;;;;9.85;6.63;;;22.70;91.70;;;;;;4881158;29;20807;-80
2023/06/19 06:29:12;;;;;;;10.65;6.70;;;22.80;91.50;;;;;;4869827;29;20131;-80
2023/06/19 06:31:41;;;;;;;8.02;5.47;;;23.00;91.30;;;;;;4853633;29;20499;-80
2023/06/19 06:34:08;;;;;;;8.63;5.97;;;23.20;90.90;;;;;;4854989;29;20055;-80
2023/06/19 06:36:35;;;;;;;8.85;5.60;;;23.20;89.60;;;;;;4849380;29;20509;-80
2023/06/19 06:39:10;;;;;;;9.23;5.63;;;23.40;90.40;;;;;;4837551;29;20571;-80
2023/06/19 06:41:37;;;;;;;8.60;5.18;;;23.50;90.40;;;;;;4865343;29;20131;-80
2023/06/19 06:44:05;;;;;;;5.85;4.53;;;23.70;89.80;;;;;;4862185;29;20048;-80
2023/06/19 06:46:32;;;;;;;7.57;5.22;;;23.70;89.00;;;;;;4846185;29;20063;-80
2023/06/19 06:48:59;;;;;;;8.95;4.97;;;23.70;87.10;;;;;;4841644;29;20052;-80
2023/06/19 06:51:27;;;;;;;7.10;4.65;;;23.70;87.20;;;;;;4846523;29;20186;-79
2023/06/19 06:53:56;;;;;;;6.03;4.35;;;23.80;86.40;;;;;;4858150;29;20166;-81
2023/06/19 06:56:24;;;;;;;6.43;3.67;;;23.90;86.10;;;;;;4866423;29;20059;-80
2023/06/19 06:58:51;;;;;;;7.47;4.60;;;24.10;85.10;;;;;;4833095;29;20096;-80
2023/06/19 07:01:23;;;;;;;5.60;4.28;;;24.10;83.20;;;;;;4865330;29;20100;-83
2023/06/19 07:03:50;;;;;;;6.75;4.18;;;24.10;83.50;;;;;;4859958;29;20460;-79
2023/06/19 07:06:18;;;;;;;6.18;4.65;;;24.10;83.30;;;;;;4886015;29;20400;-81
2023/06/19 07:08:47;;;;;;;7.18;4.60;;;24.30;84.30;;;;;;4849247;29;20279;-80
2023/06/19 07:11:14;;;;;;;10.13;4.80;;;24.60;85.50;;;;;;4881893;29;20095;-81
2023/06/19 07:13:41;;;;;;;7.63;4.72;;;24.50;83.60;;;;;;4874468;29;20194;-81
2023/06/19 07:16:08;;;;;;;9.20;4.65;;;24.70;82.70;;;;;;4877662;29;20538;-81
2023/06/19 07:18:38;;;;;;;5.97;4.40;;;24.80;82.00;;;;;;4853165;29;20066;-81
2023/06/19 07:21:12;;;;;;;5.88;3.70;;;25.00;80.60;;;;;;4858392;29;20503;-82
2023/06/19 07:23:41;;;;;;;7.10;4.95;;;25.10;80.60;;;;;;4853298;29;20559;-82
2023/06/19 07:26:09;;;;;;;10.25;4.10;;;25.30;81.90;;;;;;4855320;29;20047;-83
2023/06/19 07:28:37;;;;;;;9.00;3.90;;;25.30;81.90;;;;;;4859038;29;20053;-81
2023/06/19 07:31:04;;;;;;;5.57;3.67;;;25.30;79.40;;;;;;4868279;29;20067;-82
2023/06/19 07:33:31;;;;;;;6.22;4.13;;;25.40;77.90;;;;;;4848659;29;20314;-82
2023/06/19 07:35:58;;;;;;;8.45;4.30;;;25.20;78.50;;;;;;4843785;29;22348;-81
2023/06/19 07:38:25;;;;;;;7.97;4.03;;;25.50;80.00;;;;;;4838038;29;20065;-80
2023/06/19 07:40:54;;;;;;;7.60;4.25;;;25.50;81.50;;;;;;4839112;29;20623;-82
2023/06/19 07:43:22;;;;;;;5.30;3.60;;;25.70;78.40;;;;;;4848949;29;20091;-82
2023/06/19 07:45:49;;;;;;;5.70;3.90;;;25.80;77.20;;;;;;4846584;29;20471;-83
2023/06/19 07:48:16;;;;;;;4.00;3.40;;;25.70;74.90;;;;;;4860687;29;20052;-80
2023/06/19 07:50:44;;;;;;;5.50;3.50;;;25.40;77.40;;;;;;4861603;29;20642;-82
2023/06/19 07:53:11;;;;;;;4.13;3.60;;;25.50;76.20;;;;;;4856521;29;20057;-82
2023/06/19 07:55:38;;;;;;;5.68;3.03;;;25.40;74.40;;;;;;4858878;29;20201;-82
2023/06/19 07:58:05;;;;;;;5.00;3.53;;;25.50;75.30;;;;;;4840652;29;20088;-81
2023/06/19 08:00:32;;;;;;;5.32;4.18;;;25.60;75.50;;;;;;4862719;29;20433;-82
2023/06/19 08:02:59;;;;;;;5.88;4.20;;;25.60;75.50;;;;;;4839853;29;20056;-82
2023/06/19 08:05:27;;;;;;;7.40;3.33;;;25.80;75.50;;;;;;4856584;29;20195;-81
2023/06/19 08:07:54;;;;;;;5.60;3.70;;;25.70;73.90;;;;;;4848035;29;20550;-82
2023/06/19 08:10:21;;;;;;;5.25;4.32;;;25.80;74.50;;;;;;4866402;29;20071;-82
2023/06/19 08:12:48;;;;;;;7.20;4.70;;;25.90;77.30;;;;;;4850503;29;20060;-82
2023/06/19 08:15:18;;;;;;;6.80;4.07;;;25.90;74.90;;;;;;4866343;29;20067;-83
2023/06/19 08:17:45;;;;;;;4.60;4.10;;;26.10;75.70;;;;;;4857301;29;20059;-82
2023/06/19 08:20:13;;;;;;;6.38;3.92;;;26.20;75.10;;;;;;4853398;29;20079;-82
2023/06/19 08:22:41;;;;;;;5.22;3.22;;;26.30;76.50;;;;;;4857195;29;20143;-80
2023/06/19 08:25:08;;;;;;;5.13;3.70;;;26.60;75.40;;;;;;4867091;29;20044;-83
2023/06/19 08:27:35;;;;;;;6.35;3.90;;;26.60;74.50;;;;;;4848603;29;20164;-81
2023/06/19 08:30:03;;;;;;;4.53;3.55;;;26.20;74.90;;;;;;4866606;29;20820;-82
2023/06/19 08:32:30;;;;;;;4.85;3.95;;;25.80;75.90;;;;;;4859352;29;20049;-82
2023/06/19 08:34:57;;;;;;;6.95;4.28;;;25.70;77.00;;;;;;4850519;29;20041;-81
2023/06/19 08:37:24;;;;;;;4.90;3.97;;;25.90;77.00;;;;;;4868959;29;21821;-81
2023/06/19 08:39:52;;;;;;;5.15;4.00;;;26.00;77.70;;;;;;4855801;29;20057;-81
2023/06/19 08:42:19;;;;;;;5.18;4.05;;;26.30;77.10;;;;;;4848283;29;20182;-81
2023/06/19 08:44:46;;;;;;;5.82;3.60;;;26.40;78.20;;;;;;4848390;29;20052;-82
2023/06/19 08:47:13;;;;;;;5.53;3.97;;;26.60;76.40;;;;;;4855556;29;20056;-81
2023/06/19 08:49:40;;;;;;;5.18;4.18;;;26.80;75.70;;;;;;4856561;29;20043;-82
2023/06/19 08:52:08;;;;;;;7.63;4.20;;;26.90;75.00;;;;;;4873614;29;20047;-81
2023/06/19 08:54:43;;;;;;;6.03;4.15;;;26.90;74.70;;;;;;4866566;29;20135;-81
2023/06/19 08:57:12;;;;;;;5.55;3.72;;;26.50;75.10;;;;;;4879930;29;20486;-80
2023/06/19 08:59:41;;;;;;;5.35;4.30;;;26.60;75.00;;;;;;4861779;29;20055;-80
2023/06/19 09:02:08;;;;;;;4.68;3.72;;;26.80;72.40;;;;;;4852568;29;20059;-82
2023/06/19 09:04:35;;;;;;;6.65;4.30;;;26.90;74.40;;;;;;4872044;29;20514;-80
2023/06/19 09:07:03;;;;;;;7.45;3.65;;;26.70;73.60;;;;;;4837634;29;20052;-77
2023/06/19 09:09:48;;;;;;;4.93;3.53;;;26.90;74.20;;;;;;4841630;29;20086;-80
2023/06/19 09:12:17;;;;;;;5.78;4.10;;;27.10;71.10;;;;;;4850275;29;20191;-80
2023/06/19 09:14:55;;;;;;;5.15;3.95;;;27.10;71.90;;;;;;4844619;29;20076;-80
2023/06/19 09:17:22;;;;;;;5.90;3.85;;;27.10;72.10;;;;;;4869644;29;20504;-80
2023/06/19 09:19:57;;;;;;;3.88;3.45;;;27.00;70.90;;;;;;4848714;29;20063;-79
2023/06/19 09:22:29;;;;;;;4.28;3.20;;;26.70;69.70;;;;;;4867937;29;20534;-79
2023/06/19 09:25:02;;;;;;;3.88;3.05;;;26.70;70.10;;;;;;4866722;29;20052;-79
2023/06/19 09:27:33;;;;;;;6.03;4.27;;;26.90;68.80;;;;;;4867927;29;20063;-80
2023/06/19 09:30:01;;;;;;;4.53;3.47;;;26.80;69.40;;;;;;4866808;29;20044;-81
2023/06/19 09:32:28;;;;;;;5.07;3.05;;;26.80;70.70;;;;;;4854633;29;23091;-80
2023/06/19 09:35:00;;;;;;;4.35;3.03;;;27.00;69.50;;;;;;4860531;29;20066;-81
2023/06/19 09:37:29;;;;;;;5.20;3.33;;;27.10;69.90;;;;;;4862057;29;20419;-80
2023/06/19 09:39:58;;;;;;;4.40;3.60;;;27.00;69.90;;;;;;4855167;29;20053;-80
2023/06/19 09:42:33;;;;;;;4.30;3.40;;;27.10;67.70;;;;;;4875517;29;20052;-80
2023/06/19 09:45:12;;;;;;;5.25;3.50;;;27.20;68.80;;;;;;4873517;29;20055;-80
2023/06/19 09:47:43;;;;;;;3.92;3.10;;;27.20;67.30;;;;;;4869134;29;20084;-80
2023/06/19 09:50:16;;;;;;;5.88;3.22;;;27.30;67.20;;;;;;4850506;29;20828;-81
2023/06/19 09:52:51;;;;;;;4.32;3.35;;;27.00;65.30;;;;;;4863633;29;20048;-81
2023/06/19 09:55:19;;;;;;;3.95;3.20;;;27.10;66.30;;;;;;4849465;29;22572;-79
2023/06/19 09:57:48;;;;;;;4.25;3.20;;;27.30;67.70;;;;;;4882696;29;20043;-80
2023/06/19 10:00:21;;;;;;;4.15;3.00;;;27.30;66.20;;;;;;4861759;29;20060;-78
2023/06/19 10:02:49;;;;;;;5.15;3.25;;;27.20;68.00;;;;;;4864575;29;20056;-78
2023/06/19 10:05:27;;;;;;;4.28;2.95;;;27.30;66.10;;;;;;4857086;29;20405;-80
2023/06/19 10:07:59;;;;;;;4.25;3.40;;;27.30;66.40;;;;;;4866799;29;20058;-77
2023/06/19 10:10:27;;;;;;;3.80;3.20;;;27.40;67.00;;;;;;4855292;29;20179;-79
2023/06/19 10:13:12;;;;;;;3.85;3.30;;;27.40;65.50;;;;;;4868250;29;22762;-79
2023/06/19 10:15:44;;;;;;;4.88;3.35;;;27.50;66.20;;;;;;4857243;29;20187;-79
2023/06/19 10:18:16;;;;;;;4.40;3.53;;;27.50;64.20;;;;;;4866533;29;20056;-78
2023/06/19 10:20:44;;;;;;;;;;;27.60;65.60;;;;;;4855741;29;20833;-79
2023/06/19 10:23:22;;;;;;;4.45;2.95;;;27.70;64.60;;;;;;4863681;29;19934;-79
2023/06/19 10:25:57;;;;;;;4.82;3.25;;;27.60;62.60;;;;;;4857904;29;20700;-78
2023/06/19 10:28:32;;;;;;;4.03;3.15;;;27.50;63.40;;;;;;4840059;29;20420;-79
2023/06/19 10:31:05;;;;;;;4.78;3.40;;;27.60;64.50;;;;;;4869523;29;20934;-77
2023/06/19 10:33:36;;;;;;;3.97;2.75;;;27.70;64.20;;;;;;4851448;29;20052;-78
2023/06/19 10:36:25;;;;;;;4.82;3.20;;;27.60;64.20;;;;;;4849628;29;20090;-78
2023/06/19 10:38:53;;;;;;;4.88;2.92;;;27.60;62.90;;;;;;4864368;29;20410;-77
2023/06/19 10:41:24;;;;;;;4.50;3.08;;;27.70;65.00;;;;;;4850241;29;20060;-78
2023/06/19 10:44:12;;;;;;;5.93;3.00;;;27.70;64.40;;;;;;4836533;29;20056;-80
2023/06/19 10:46:40;;;;;;;4.25;3.20;;;27.80;65.10;;;;;;4852589;29;20295;-78
2023/06/19 10:49:10;;;;;;;4.82;2.80;;;27.60;63.90;;;;;;4844751;29;20192;-80
2023/06/19 10:51:38;;;;;;;4.65;3.55;;;27.80;64.90;;;;;;4868776;29;20048;-78
2023/06/19 10:54:06;;;;;;;3.97;2.70;;;27.70;63.50;;;;;;4845713;29;20056;-79
2023/06/19 10:56:34;;;;;;;4.45;3.20;;;27.80;65.20;;;;;;4857326;29;20070;-78
2023/06/19 10:59:05;;;;;;;4.47;3.78;;;27.80;63.80;;;;;;4866386;29;20052;-78
2023/06/19 11:01:34;;;;;;;3.60;3.20;;;27.60;62.70;;;;;;4843767;29;20056;-78
2023/06/19 11:04:09;;;;;;;4.35;3.33;;;27.80;64.60;;;;;;4867988;29;22459;-78
2023/06/19 11:06:38;;;;;;;4.40;3.10;;;28.00;64.30;;;;;;4866352;29;20052;-79
2023/06/19 11:09:07;;;;;;;4.13;3.15;;;28.10;64.20;;;;;;4882685;29;20059;-78
2023/06/19 11:11:41;;;;;;;3.50;3.10;;;28.00;64.70;;;;;;4860034;29;20055;-79
2023/06/19 11:14:12;;;;;;;3.72;3.10;;;28.00;61.70;;;;;;4864270;29;20198;-78
2023/06/19 11:16:42;;;;;;;4.53;2.92;;;27.80;61.50;;;;;;4861664;29;20061;-77
2023/06/19 11:19:15;;;;;;;5.03;3.72;;;27.90;62.90;;;;;;4851175;29;20412;-78
2023/06/19 11:21:48;;;;;;;4.57;3.33;;;28.00;60.90;;;;;;4858729;29;20048;-78
2023/06/19 11:24:16;;;;;;;4.30;3.00;;;28.00;62.20;;;;;;4862145;29;20040;-77
2023/06/19 11:26:49;;;;;;;4.95;3.40;;;28.00;61.40;;;;;;4859810;29;20067;-78
2023/06/19 11:29:18;;;;;;;8.60;3.83;;;28.10;63.30;;;;;;4851303;29;20052;-78
2023/06/19 11:31:47;;;;;;;5.55;3.80;;;28.00;61.70;;;;;;4865003;29;20063;-78
2023/06/19 11:34:15;;;;;;;4.88;3.58;;;28.10;63.10;;;;;;4864506;29;20542;-77
2023/06/19 11:36:43;;;;;;;4.47;3.33;;;28.10;61.20;;;;;;4862490;29;20044;-77
2023/06/19 11:39:13;;;;;;;6.00;3.58;;;28.10;62.10;;;;;;4837905;29;20056;-79
2023/06/19 11:41:44;;;;;;;4.13;3.38;;;28.10;59.50;;;;;;4862870;29;20514;-77
2023/06/19 11:44:11;;;;;;;5.38;3.47;;;28.10;61.30;;;;;;4858876;29;20051;-78
2023/06/19 11:46:38;;;;;;;5.13;3.70;;;27.90;59.10;;;;;;4864691;29;20129;-78
2023/06/19 11:49:13;;;;;;;4.85;3.88;;;27.90;60.70;;;;;;4862997;29;20067;-78
2023/06/19 11:51:41;;;;;;;5.30;3.72;;;28.10;60.30;;;;;;4848213;29;20040;-77
2023/06/19 11:54:11;;;;;;;4.30;3.80;;;28.20;61.60;;;;;;4853923;29;20834;-79
2023/06/19 11:56:39;;;;;;;4.35;3.20;;;28.20;60.30;;;;;;4877186;29;20492;-78
2023/06/19 11:59:07;;;;;;;4.90;3.40;;;28.30;62.10;;;;;;4849031;29;20044;-78
2023/06/19 12:01:36;;;;;;;5.15;3.67;;;28.30;62.40;;;;;;4864247;29;20472;-78
2023/06/19 12:04:04;;;;;;;4.07;3.50;;;28.10;61.80;;;;;;4843135;29;20056;-78
2023/06/19 12:06:31;;;;;;;6.70;3.65;;;28.10;60.50;;;;;;4862809;29;20554;-79
2023/06/19 12:08:59;;;;;;;6.18;3.28;;;28.10;60.80;;;;;;4862928;29;20816;-78
2023/06/19 12:11:26;;;;;;;5.47;3.75;;;28.00;60.80;;;;;;4847447;29;20103;-80
2023/06/19 12:13:53;;;;;;;3.83;3.30;;;28.00;62.80;;;;;;4869719;29;20693;-79
2023/06/19 12:16:20;;;;;;;4.25;3.40;;;27.80;62.00;;;;;;4853353;29;20405;-80
2023/06/19 12:18:47;;;;;;;5.13;4.25;;;27.60;62.00;;;;;;4862058;29;20677;-79
2023/06/19 12:21:15;;;;;;;4.32;3.60;;;27.40;61.20;;;;;;4865605;29;20130;-78
2023/06/19 12:24:00;;;;;;;4.80;3.33;;;27.30;62.00;;;;;;4865376;29;20166;-78
2023/06/19 12:26:28;;;;;;;5.72;3.22;;;27.60;63.40;;;;;;4862211;29;20679;-78
2023/06/19 12:28:55;;;;;;;3.83;3.40;;;27.90;62.20;;;;;;4863445;29;20234;-77
2023/06/19 12:31:22;;;;;;;4.30;3.55;;;28.00;63.50;;;;;;4879638;29;20056;-78
2023/06/19 12:33:49;;;;;;;8.88;3.95;;;28.20;62.80;;;;;;4863034;29;22335;-79
2023/06/19 12:36:16;;;;;;;5.07;3.50;;;28.10;61.20;;;;;;4862775;29;20396;-79
2023/06/19 12:38:43;;;;;;;3.83;3.22;;;28.10;61.20;;;;;;4869896;29;20036;-78
2023/06/19 12:41:11;;;;;;;6.85;3.50;;;28.20;62.50;;;;;;4866411;29;20235;-79
2023/06/19 12:43:39;;;;;;;4.75;3.25;;;28.30;61.30;;;;;;4882363;29;20047;-81
2023/06/19 12:46:06;;;;;;;5.03;3.70;;;28.30;61.20;;;;;;4857043;29;20050;-79
2023/06/19 12:48:33;;;;;;;6.30;3.40;;;28.40;58.90;;;;;;4868466;29;20102;-80
2023/06/19 12:51:00;;;;;;;5.70;3.30;;;28.40;59.20;;;;;;4867559;29;20051;-79
2023/06/19 12:53:29;;;;;;;5.15;4.28;;;28.40;59.30;;;;;;4864097;29;20226;-79